createdAt,value
2018-01-26T04:32:40.743Z,7.87
2018-01-26T04:35:14.381Z,11.88
2018-01-26T04:37:48.851Z,14.48
2018-01-26T04:40:22.624Z,7.25
2018-01-26T04:42:56.366Z,12.37
2018-01-26T04:45:30.071Z,9.07
2018-01-26T04:48:03.819Z,11.20
2018-01-26T04:50:37.622Z,11.27
2018-01-26T04:53:11.378Z,12.48
2018-01-26T04:55:45.276Z,9.10
2018-01-26T04:58:35.002Z,9.10
2018-01-26T05:01:10.303Z,17.05
2018-01-26T05:03:44.084Z,12.02
2018-01-26T05:06:17.698Z,12.85
2018-01-26T05:08:52.316Z,9.65
2018-01-26T05:11:26.869Z,10.20
2018-01-26T05:14:00.859Z,12.52
2018-01-26T05:16:34.446Z,9.95
2018-01-26T05:19:09.087Z,13.13
2018-01-26T05:21:42.804Z,10.70
2018-01-26T05:24:16.631Z,10.75
2018-01-26T05:26:50.374Z,10.43
2018-01-26T05:29:24.165Z,13.07
2018-01-26T05:31:58.625Z,10.05
2018-01-26T05:34:33.372Z,9.32
2018-01-26T05:37:07.202Z,10.20
2018-01-26T05:39:41.280Z,9.75
2018-01-26T05:42:15.083Z,15.35
2018-01-26T05:44:48.976Z,11.93
2018-01-26T05:47:23.403Z,11.00
2018-01-26T05:49:57.096Z,9.45
2018-01-26T05:52:30.945Z,10.88
2018-01-26T05:55:07.537Z,7.55
2018-01-26T05:57:42.439Z,8.68
2018-01-26T06:00:16.163Z,8.80
2018-01-26T06:02:51.740Z,7.87
2018-01-26T06:05:25.583Z,12.85
2018-01-26T06:07:59.481Z,11.35
2018-01-26T06:10:33.404Z,14.98
2018-01-26T06:13:07.248Z,14.93
2018-01-26T06:15:41.431Z,14.77
2018-01-26T06:18:15.243Z,15.52
2018-01-26T06:20:49.111Z,18.30
2018-01-26T06:23:24.457Z,15.93
2018-01-26T06:25:58.311Z,16.00
2018-01-26T06:28:31.962Z,16.58
2018-01-26T06:31:06.633Z,14.98
2018-01-26T06:33:41.217Z,16.20
2018-01-26T06:36:14.901Z,15.32
2018-01-26T06:38:48.735Z,15.75
2018-01-26T06:41:25.286Z,11.55
2018-01-26T06:44:00.167Z,8.35
2018-01-26T06:46:33.860Z,8.63
2018-01-26T06:49:07.526Z,9.00
2018-01-26T06:51:43.456Z,9.65
2018-01-26T06:54:17.228Z,9.95
2018-01-26T06:56:51.005Z,11.20
2018-01-26T06:59:24.744Z,6.62
2018-01-26T07:01:58.487Z,6.57
2018-01-26T07:04:33.046Z,8.60
2018-01-26T07:07:07.295Z,5.65
2018-01-26T07:09:42.120Z,9.52
2018-01-26T07:12:15.919Z,8.15
2018-01-26T07:14:49.756Z,8.60
2018-01-26T07:17:23.564Z,11.18
2018-01-26T07:19:57.288Z,10.13
2018-01-26T07:22:31.116Z,13.52
2018-01-26T07:25:05.737Z,10.68
2018-01-26T07:27:40.476Z,16.55
2018-01-26T07:30:14.316Z,8.27
2018-01-26T07:32:48.916Z,7.87
2018-01-26T07:35:23.403Z,10.35
2018-01-26T07:37:57.848Z,10.63
2018-01-26T07:40:31.682Z,5.72
2018-01-26T07:43:05.487Z,6.30
2018-01-26T07:45:40.039Z,8.20
2018-01-26T07:48:13.892Z,9.23
2018-01-26T07:50:47.647Z,5.87
2018-01-26T07:53:21.471Z,5.80
2018-01-26T07:55:55.269Z,3.85
2018-01-26T07:58:28.993Z,7.53
2018-01-26T08:01:03.029Z,3.70
2018-01-26T08:03:37.104Z,3.75
2018-01-26T08:06:11.782Z,13.55
2018-01-26T08:08:46.500Z,4.15
2018-01-26T08:11:20.327Z,4.12
2018-01-26T08:13:54.884Z,4.07
2018-01-26T08:16:28.660Z,3.72
2018-01-26T08:19:02.527Z,3.72
2018-01-26T08:21:36.379Z,4.93
2018-01-26T08:24:10.417Z,11.00
2018-01-26T08:26:44.172Z,5.35
2018-01-26T08:29:17.979Z,5.20
2018-01-26T08:31:52.591Z,6.25
2018-01-26T08:34:26.322Z,2.58
2018-01-26T08:37:01.545Z,5.32
2018-01-26T08:39:35.292Z,3.75
2018-01-26T08:42:09.104Z,7.45
2018-01-26T08:44:42.976Z,4.32
2018-01-26T08:47:17.178Z,3.90
2018-01-26T08:49:51.111Z,5.45
2018-01-26T08:52:25.601Z,4.18
2018-01-26T08:55:00.183Z,4.97
2018-01-26T08:57:34.023Z,11.25
2018-01-26T09:00:07.918Z,8.73
2018-01-26T09:02:42.564Z,6.80
2018-01-26T09:05:16.958Z,5.45
2018-01-26T09:07:51.107Z,4.80
2018-01-26T09:10:24.887Z,4.95
2018-01-26T09:13:00.252Z,3.85
2018-01-26T09:15:34.015Z,3.15
2018-01-26T09:18:07.837Z,4.62
2018-01-26T09:20:41.681Z,4.00
2018-01-26T09:23:15.296Z,4.10
2018-01-26T09:25:49.044Z,6.00
2018-01-26T09:28:22.979Z,6.72
2018-01-26T09:30:56.930Z,6.75
2018-01-26T09:33:30.704Z,7.62
2018-01-26T09:36:04.489Z,3.33
2018-01-26T09:38:39.204Z,5.10
2018-01-26T09:41:13.063Z,5.75
2018-01-26T09:43:46.822Z,5.47
2018-01-26T09:46:21.887Z,7.15
2018-01-26T09:48:55.661Z,9.23
2018-01-26T09:51:29.816Z,8.20
2018-01-26T09:54:03.671Z,9.32
2018-01-26T09:56:38.240Z,7.93
2018-01-26T09:59:12.128Z,7.45
2018-01-26T10:01:45.887Z,9.32
2018-01-26T10:04:20.447Z,7.22
2018-01-26T10:06:55.114Z,7.72
2018-01-26T10:09:29.135Z,8.68
2018-01-26T10:12:02.816Z,7.97
2018-01-26T10:14:36.706Z,10.07
2018-01-26T10:17:10.537Z,7.78
2018-01-26T10:19:45.123Z,7.95
2018-01-26T10:22:19.573Z,13.40
2018-01-26T10:24:54.075Z,9.18
2018-01-26T10:27:27.784Z,7.35
2018-01-26T10:30:02.296Z,8.15
2018-01-26T10:32:36.131Z,7.35
2018-01-26T10:35:10.624Z,6.37
2018-01-26T10:37:45.145Z,8.82
2018-01-26T10:40:19.795Z,7.40
2018-01-26T10:42:54.280Z,9.27
2018-01-26T10:45:28.091Z,7.90
2018-01-26T10:48:02.632Z,12.25
2018-01-26T10:50:36.509Z,7.35
2018-01-26T10:53:10.199Z,6.85
2018-01-26T10:55:43.985Z,9.10
2018-01-26T10:58:18.184Z,10.10
2018-01-26T11:00:54.128Z,8.35
2018-01-26T11:03:27.843Z,10.90
2018-01-26T11:06:05.121Z,9.75
2018-01-26T11:08:38.800Z,11.88
2018-01-26T11:11:12.744Z,13.50
2018-01-26T11:13:47.271Z,9.82
2018-01-26T11:16:20.870Z,12.95
2018-01-26T11:18:54.943Z,10.25
2018-01-26T11:21:28.693Z,11.35
2018-01-26T11:24:02.470Z,10.95
2018-01-26T11:26:36.285Z,12.32
2018-01-26T11:29:10.907Z,12.77
2018-01-26T11:31:44.727Z,12.95
2018-01-26T11:34:18.521Z,8.68
2018-01-26T11:36:52.588Z,15.63
2018-01-26T11:39:27.900Z,12.10
2018-01-26T11:42:01.724Z,10.40
2018-01-26T11:44:35.535Z,9.95
2018-01-26T11:47:10.235Z,10.02
2018-01-26T11:49:43.954Z,11.70
2018-01-26T11:52:17.761Z,9.23
2018-01-26T11:54:52.256Z,7.18
2018-01-26T11:57:26.237Z,8.40
2018-01-26T12:00:00.100Z,7.62
2018-01-26T12:02:34.678Z,13.27
2018-01-26T12:05:08.536Z,6.10
2018-01-26T12:07:42.460Z,12.02
2018-01-26T12:10:16.213Z,6.65
2018-01-26T12:12:49.944Z,5.30
2018-01-26T12:15:25.039Z,6.45
2018-01-26T12:17:58.653Z,5.37
2018-01-26T12:20:32.404Z,5.22
2018-01-26T12:23:06.983Z,3.85
2018-01-26T12:25:41.114Z,4.90
2018-01-26T12:28:15.958Z,5.40
2018-01-26T12:30:50.802Z,4.57
2018-01-26T12:33:24.888Z,7.45
2018-01-26T12:35:58.975Z,3.50
2018-01-26T12:38:32.789Z,4.43
2018-01-26T12:41:06.464Z,7.03
2018-01-26T12:43:40.339Z,3.50
2018-01-26T12:46:14.869Z,5.15
2018-01-26T12:48:49.020Z,5.03
2018-01-26T12:51:22.891Z,10.40
2018-01-26T12:53:56.588Z,6.68
2018-01-26T12:56:30.455Z,4.70
2018-01-26T12:59:04.317Z,7.37
2018-01-26T13:01:38.051Z,4.93
2018-01-26T13:04:11.961Z,5.47
2018-01-26T13:06:45.723Z,7.90
2018-01-26T13:09:21.118Z,10.57
2018-01-26T13:11:54.858Z,5.50
2018-01-26T13:14:28.754Z,17.48
2018-01-26T13:17:02.455Z,6.15
2018-01-26T13:19:36.300Z,6.05
2018-01-26T13:22:10.371Z,7.47
2018-01-26T13:24:44.145Z,5.25
2018-01-26T13:27:17.891Z,6.43
2018-01-26T13:29:52.443Z,6.43
2018-01-26T13:32:26.295Z,4.75
2018-01-26T13:35:00.191Z,5.72
2018-01-26T13:37:34.139Z,2.97
2018-01-26T13:40:07.938Z,3.97
2018-01-26T13:42:42.872Z,4.28
2018-01-26T13:45:16.573Z,3.78
2018-01-26T13:47:50.291Z,3.58
2018-01-26T13:50:24.122Z,2.35
2018-01-26T13:52:57.876Z,2.83
2018-01-26T13:55:32.399Z,2.95
2018-01-26T13:58:06.123Z,4.07
2018-01-26T14:00:39.912Z,3.90
2018-01-26T14:03:13.763Z,3.10
2018-01-26T14:05:48.247Z,5.55
2018-01-26T14:08:21.969Z,5.47
2018-01-26T14:10:55.655Z,6.65
2018-01-26T14:13:29.459Z,4.07
2018-01-26T14:16:04.063Z,4.37
2018-01-26T14:18:37.815Z,5.80
2018-01-26T14:21:12.380Z,4.97
2018-01-26T14:23:46.064Z,4.37
2018-01-26T14:26:19.838Z,4.37
2018-01-26T14:28:53.548Z,5.55
2018-01-26T14:31:27.368Z,3.80
2018-01-26T14:34:01.653Z,5.60
2018-01-26T14:36:35.484Z,4.40
2018-01-26T14:39:10.086Z,3.00
2018-01-26T14:41:43.821Z,5.40
2018-01-26T14:44:17.687Z,4.57
2018-01-26T14:46:51.520Z,4.30
2018-01-26T14:49:25.399Z,4.37
2018-01-26T14:51:59.187Z,3.75
2018-01-26T14:54:32.960Z,3.37
2018-01-26T14:57:06.799Z,4.50
2018-01-26T14:59:40.827Z,4.07
2018-01-26T15:02:15.492Z,3.95
2018-01-26T15:04:50.775Z,5.55
2018-01-26T15:07:24.597Z,7.28
2018-01-26T15:09:59.194Z,6.15
2018-01-26T15:12:33.866Z,5.50
2018-01-26T15:15:07.696Z,6.78
2018-01-26T15:17:41.482Z,5.28
2018-01-26T15:20:15.208Z,4.87
2018-01-26T15:22:48.971Z,4.45
2018-01-26T15:25:22.763Z,5.62
2018-01-26T15:27:56.650Z,4.90
2018-01-26T15:30:30.489Z,9.63
2018-01-26T15:33:05.706Z,7.82
2018-01-26T15:35:39.401Z,6.85
2018-01-26T15:38:13.994Z,6.65
2018-01-26T15:40:48.629Z,7.85
2018-01-26T15:43:24.094Z,8.60
2018-01-26T15:45:59.003Z,7.87
2018-01-26T15:48:33.226Z,7.95
2018-01-26T15:51:07.113Z,7.15
2018-01-26T15:53:41.130Z,9.80
2018-01-26T15:56:15.354Z,7.80
2018-01-26T15:58:49.040Z,7.18
2018-01-26T16:01:23.082Z,7.68
2018-01-26T16:03:56.861Z,8.07
2018-01-26T16:06:31.618Z,9.10
2018-01-26T16:09:05.745Z,9.07
2018-01-26T16:11:40.564Z,8.38
2018-01-26T16:14:14.447Z,8.35
2018-01-26T16:16:48.427Z,8.18
2018-01-26T16:19:22.983Z,8.68
2018-01-26T16:21:57.479Z,10.40
2018-01-26T16:24:31.114Z,8.60
2018-01-26T16:27:05.754Z,9.25
2018-01-26T16:29:40.262Z,10.82
2018-01-26T16:32:13.993Z,10.18
2018-01-26T16:34:47.794Z,10.88
2018-01-26T16:37:21.478Z,11.10
2018-01-26T16:39:55.992Z,13.13
2018-01-26T16:42:30.546Z,11.93
2018-01-26T16:45:06.389Z,13.48
2018-01-26T16:47:40.820Z,12.43
2018-01-26T16:50:14.757Z,15.40
2018-01-26T16:52:49.393Z,14.98
2018-01-26T16:55:24.667Z,12.60
2018-01-26T16:57:58.544Z,15.35
2018-01-26T17:00:32.319Z,14.73
2018-01-26T17:03:06.139Z,16.85
2018-01-26T17:05:39.987Z,15.93
2018-01-26T17:08:14.933Z,14.40
2018-01-26T17:10:49.359Z,15.73
2018-01-26T17:13:23.376Z,14.20
2018-01-26T17:15:57.132Z,24.00
2018-01-26T17:18:31.043Z,17.40
2018-01-26T17:21:04.657Z,18.33
2018-01-26T17:23:38.404Z,15.73
2018-01-26T17:26:12.288Z,16.87
2018-01-26T17:28:46.826Z,15.80
2018-01-26T17:31:20.723Z,17.02
2018-01-26T17:33:54.535Z,17.67
2018-01-26T17:36:28.328Z,17.83
2018-01-26T17:39:02.139Z,19.55
2018-01-26T17:41:36.767Z,18.12
2018-01-26T17:44:10.610Z,16.90
2018-01-26T17:46:45.287Z,23.95
2018-01-26T17:49:20.387Z,21.55
2018-01-26T17:51:54.129Z,14.63
2018-01-26T17:54:28.025Z,19.17
2018-01-26T17:57:02.658Z,22.02
2018-01-26T17:59:36.535Z,17.80
2018-01-26T18:02:16.142Z,16.10
2018-01-26T18:04:50.575Z,18.58
2018-01-26T18:07:24.310Z,19.15
2018-01-26T18:09:58.873Z,20.37
2018-01-26T18:12:32.641Z,17.95
2018-01-26T18:15:06.408Z,17.48
2018-01-26T18:17:40.208Z,17.30
2018-01-26T18:20:15.005Z,17.48
2018-01-26T18:22:48.768Z,16.80
2018-01-26T18:25:22.721Z,20.23
2018-01-26T18:27:56.577Z,15.10
2018-01-26T18:30:30.299Z,17.27
2018-01-26T18:33:04.031Z,13.32
2018-01-26T18:35:37.812Z,14.35
2018-01-26T18:38:11.658Z,14.75
2018-01-26T18:40:45.552Z,12.43
2018-01-26T18:43:19.719Z,11.60
2018-01-26T18:45:54.363Z,12.55
2018-01-26T18:48:28.212Z,19.20
2018-01-26T18:51:02.072Z,10.77
2018-01-26T18:53:35.877Z,10.60
2018-01-26T18:56:09.608Z,11.60
2018-01-26T18:58:43.463Z,12.40
2018-01-26T19:01:17.636Z,12.45
2018-01-26T19:03:51.804Z,11.98
2018-01-26T19:06:25.566Z,10.80
2018-01-26T19:08:59.412Z,12.45
2018-01-26T19:11:33.242Z,14.87
2018-01-26T19:14:06.975Z,11.38
2018-01-26T19:16:40.684Z,12.55
2018-01-26T19:21:53.636Z,15.20
2018-01-26T19:24:27.365Z,12.80
2018-01-26T19:27:01.063Z,11.52
2018-01-26T19:32:55.344Z,14.32
2018-01-26T19:35:29.287Z,13.93
2018-01-26T19:38:03.859Z,14.98
2018-01-26T19:40:38.567Z,12.85
2018-01-26T19:43:12.331Z,16.02
2018-01-26T19:45:46.240Z,16.30
2018-01-26T19:48:20.769Z,14.57
2018-01-26T19:50:54.615Z,12.07
2018-01-26T19:53:28.698Z,14.20
2018-01-26T19:56:03.205Z,14.35
2018-01-26T19:58:37.096Z,14.77
2018-01-26T20:01:12.006Z,15.15
2018-01-26T20:03:57.775Z,14.93
2018-01-26T20:06:49.989Z,13.57
2018-01-26T20:09:25.874Z,13.52
2018-01-26T20:12:05.330Z,13.40
2018-01-26T20:14:40.162Z,17.00
2018-01-26T20:17:14.075Z,14.63
2018-01-26T20:19:47.985Z,14.70
2018-01-26T20:22:22.425Z,13.43
2018-01-26T20:24:56.991Z,10.88
2018-01-26T20:27:30.758Z,13.30
2018-01-26T20:30:05.320Z,15.07
2018-01-26T20:32:39.109Z,13.20
2018-01-26T20:35:12.897Z,16.70
2018-01-26T20:37:46.674Z,14.38
2018-01-26T20:40:20.835Z,12.57
2018-01-26T20:42:54.695Z,13.50
2018-01-26T20:45:28.456Z,12.80
2018-01-26T20:48:02.215Z,14.02
2018-01-26T20:50:36.682Z,15.32
2018-01-26T20:53:11.266Z,13.77
2018-01-26T20:55:45.290Z,13.43
2018-01-26T20:58:19.099Z,13.10
2018-01-26T21:00:54.104Z,15.93
2018-01-26T21:03:27.923Z,15.18
2018-01-26T21:06:01.783Z,14.75
2018-01-26T21:08:35.594Z,12.07
2018-01-26T21:11:09.455Z,16.23
2018-01-26T21:13:43.229Z,13.10
2018-01-26T21:16:17.026Z,13.35
2018-01-26T21:18:50.751Z,13.65
2018-01-26T21:21:24.747Z,13.23
2018-01-26T21:23:58.552Z,15.23
2018-01-26T21:26:32.428Z,14.75
2018-01-26T21:29:06.197Z,15.63
2018-01-26T21:31:40.050Z,16.05
2018-01-26T21:34:13.923Z,14.98
2018-01-26T21:36:48.359Z,16.17
2018-01-26T21:39:22.026Z,14.43
2018-01-26T21:41:56.002Z,14.40
2018-01-26T21:44:29.663Z,14.38
2018-01-26T21:47:04.139Z,17.33
2018-01-26T21:49:38.584Z,14.48
2018-01-26T21:52:13.012Z,14.20
2018-01-26T21:54:46.975Z,15.05
2018-01-26T21:57:22.390Z,14.35
2018-01-26T21:59:57.423Z,12.25
